createdAt,value
2023-01-20T00:00:12.779Z,7.85
2023-01-20T00:02:39.830Z,7.92
2023-01-20T00:05:06.923Z,8.01
2023-01-20T00:07:34.788Z,8.07
2023-01-20T00:10:01.332Z,8.14
2023-01-20T00:12:30.616Z,8.19
2023-01-20T00:14:57.187Z,8.24
2023-01-20T00:17:23.828Z,8.28
2023-01-20T00:19:50.306Z,8.32
2023-01-20T00:22:16.767Z,8.38
2023-01-20T00:24:43.173Z,8.41
2023-01-20T00:27:09.837Z,8.43
2023-01-20T00:29:36.339Z,8.45
2023-01-20T00:32:03.121Z,8.44
2023-01-20T00:34:29.950Z,8.44
2023-01-20T00:36:56.374Z,8.43
2023-01-20T00:39:23.123Z,8.42
2023-01-20T00:41:49.559Z,8.40
2023-01-20T00:44:16.153Z,8.39
2023-01-20T00:46:42.700Z,8.40
2023-01-20T00:49:09.894Z,8.40
2023-01-20T00:51:36.336Z,8.39
2023-01-20T00:54:03.097Z,8.37
2023-01-20T00:56:29.602Z,8.36
2023-01-20T00:58:56.092Z,8.34
2023-01-20T01:01:22.944Z,8.32
2023-01-20T01:03:53.526Z,8.29
2023-01-20T01:06:20.595Z,8.23
2023-01-20T01:08:47.148Z,8.16
2023-01-20T01:11:14.831Z,8.09
2023-01-20T01:13:41.420Z,8.03
2023-01-20T01:16:14.525Z,7.97
2023-01-20T01:18:41.695Z,7.94
2023-01-20T01:21:13.350Z,7.92
2023-01-20T01:23:39.987Z,7.93
2023-01-20T01:26:06.637Z,7.94
2023-01-20T01:28:33.171Z,7.96
2023-01-20T01:31:04.259Z,7.98
2023-01-20T01:33:31.345Z,7.96
2023-01-20T01:35:58.520Z,7.93
2023-01-20T01:38:25.362Z,7.93
2023-01-20T01:40:52.125Z,7.92
2023-01-20T01:43:27.460Z,7.89
2023-01-20T01:45:54.084Z,7.88
2023-01-20T01:48:27.600Z,7.88
2023-01-20T01:51:00.445Z,7.87
2023-01-20T01:53:27.003Z,7.86
2023-01-20T01:55:55.985Z,7.82
2023-01-20T01:58:25.339Z,7.77
2023-01-20T02:00:51.816Z,7.71
2023-01-20T02:03:19.059Z,7.64
2023-01-20T02:05:45.844Z,7.59
2023-01-20T02:08:12.344Z,7.54
2023-01-20T02:10:38.869Z,7.52
2023-01-20T02:13:05.505Z,7.51
2023-01-20T02:15:51.521Z,7.49
2023-01-20T02:18:43.121Z,7.48
2023-01-20T02:21:20.715Z,7.46
2023-01-20T02:24:22.979Z,7.43
2023-01-20T02:27:19.075Z,7.42
2023-01-20T02:30:30.848Z,7.38
2023-01-20T02:32:59.081Z,7.29
2023-01-20T02:35:52.362Z,7.21
2023-01-20T02:38:21.977Z,7.19
2023-01-20T02:41:06.847Z,7.19
2023-01-20T02:43:38.228Z,7.21
2023-01-20T02:46:15.451Z,7.22
2023-01-20T02:48:54.715Z,7.19
2023-01-20T02:51:25.063Z,7.15
2023-01-20T02:53:54.523Z,7.14
2023-01-20T02:56:22.951Z,7.13
2023-01-20T02:58:56.132Z,7.10
2023-01-20T03:01:34.523Z,7.11
2023-01-20T03:04:01.760Z,7.11
2023-01-20T03:06:31.346Z,7.09
2023-01-20T03:08:59.220Z,7.08
2023-01-20T03:11:25.951Z,7.08
2023-01-20T03:14:10.117Z,7.08
2023-01-20T03:16:36.552Z,7.08
2023-01-20T03:19:03.732Z,7.10
2023-01-20T03:21:30.736Z,7.11
2023-01-20T03:24:00.140Z,7.11
2023-01-20T03:26:26.949Z,7.10
2023-01-20T03:28:56.054Z,7.09
2023-01-20T03:31:28.154Z,7.06
2023-01-20T03:33:56.586Z,7.03
2023-01-20T03:36:24.268Z,6.97
2023-01-20T03:38:50.794Z,6.93
2023-01-20T03:41:22.594Z,6.90
2023-01-20T03:43:57.044Z,6.85
2023-01-20T03:46:32.472Z,6.78
2023-01-20T03:49:09.280Z,6.75
2023-01-20T03:52:01.267Z,6.69
2023-01-20T03:54:32.988Z,6.55
2023-01-20T03:57:03.552Z,6.45
2023-01-20T03:59:32.205Z,6.38
2023-01-20T04:02:01.772Z,6.33
2023-01-20T04:04:28.911Z,6.27
2023-01-20T04:06:55.360Z,6.24
2023-01-20T04:09:24.325Z,6.23
2023-01-20T04:11:50.887Z,6.26
2023-01-20T04:14:17.305Z,6.29
2023-01-20T04:16:50.287Z,6.28
2023-01-20T04:19:16.829Z,6.18
2023-01-20T04:21:48.465Z,6.12
2023-01-20T04:24:42.499Z,6.09
2023-01-20T04:27:09.117Z,6.07
2023-01-20T04:29:35.756Z,6.07
2023-01-20T04:32:02.589Z,6.05
2023-01-20T04:34:29.369Z,6.01
2023-01-20T04:36:55.820Z,5.97
2023-01-20T04:39:22.423Z,5.90
2023-01-20T04:41:48.906Z,5.85
2023-01-20T04:44:15.614Z,5.77
2023-01-20T04:46:42.147Z,5.67
2023-01-20T04:49:10.394Z,5.62
2023-01-20T04:51:36.868Z,5.60
2023-01-20T04:54:03.403Z,5.57
2023-01-20T04:56:29.889Z,5.53
2023-01-20T04:58:56.365Z,5.46
2023-01-20T05:01:22.943Z,5.42
2023-01-20T05:03:49.484Z,5.35
2023-01-20T05:06:16.231Z,5.31
2023-01-20T05:08:45.094Z,5.27
2023-01-20T05:11:11.596Z,5.24
2023-01-20T05:13:39.583Z,5.23
2023-01-20T05:16:07.503Z,5.24
2023-01-20T05:19:23.689Z,5.26
2023-01-20T05:21:50.314Z,5.19
2023-01-20T05:24:17.027Z,5.13
2023-01-20T05:26:43.731Z,5.09
2023-01-20T05:29:10.408Z,5.08
2023-01-20T05:31:38.780Z,5.09
2023-01-20T05:34:05.530Z,5.11
2023-01-20T05:36:32.919Z,5.11
2023-01-20T08:15:30.795Z,5.23
2023-01-20T08:17:58.609Z,5.40
2023-01-20T08:20:25.309Z,5.60
2023-01-20T08:22:52.105Z,5.82
2023-01-20T08:25:18.824Z,6.03
2023-01-20T08:27:48.076Z,6.25
2023-01-20T08:30:15.162Z,6.46
2023-01-20T08:32:41.927Z,6.68
2023-01-20T08:35:08.796Z,6.89
2023-01-20T08:37:38.602Z,7.07
2023-01-20T08:40:09.823Z,7.23
2023-01-20T08:42:37.126Z,7.39
2023-01-20T08:45:04.995Z,7.53
2023-01-20T08:47:32.171Z,7.65
2023-01-20T08:49:58.830Z,7.74
2023-01-20T08:52:25.674Z,7.83
2023-01-20T08:54:53.347Z,7.93
2023-01-20T08:57:20.013Z,8.03
2023-01-20T08:59:47.384Z,8.10
2023-01-20T09:02:14.169Z,8.16
2023-01-20T09:04:40.928Z,8.25
2023-01-20T09:07:08.271Z,8.29
2023-01-20T09:09:36.678Z,8.33
2023-01-20T09:12:04.649Z,8.36
2023-01-20T09:14:31.329Z,8.41
2023-01-20T09:16:58.250Z,8.46
2023-01-20T09:19:24.930Z,8.51
2023-01-20T09:21:51.605Z,8.56
2023-01-20T09:24:18.448Z,8.61
2023-01-20T09:26:45.345Z,8.68
2023-01-20T09:29:14.240Z,8.72
2023-01-20T09:31:44.709Z,8.75
2023-01-20T09:34:19.567Z,8.76
2023-01-20T09:36:56.270Z,8.82
2023-01-20T09:39:41.717Z,8.88
2023-01-20T09:43:12.723Z,8.93
2023-01-20T09:45:45.553Z,8.95
2023-01-20T09:48:54.564Z,8.96
2023-01-20T09:51:47.572Z,9.00
2023-01-20T09:54:22.895Z,9.03
2023-01-20T09:56:49.689Z,9.06
2023-01-20T09:59:28.147Z,9.07
2023-01-20T10:01:56.741Z,9.12
2023-01-20T10:04:37.177Z,9.17
2023-01-20T10:07:12.957Z,9.22
2023-01-20T10:09:56.538Z,9.26
2023-01-20T10:12:32.207Z,9.32
2023-01-20T10:15:07.549Z,9.35
2023-01-20T10:17:39.033Z,9.40
2023-01-20T10:20:12.100Z,9.45
2023-01-20T10:22:48.128Z,9.50
2023-01-20T10:25:22.177Z,9.57
2023-01-20T10:27:55.709Z,9.65
2023-01-20T10:30:24.552Z,9.70
2023-01-20T10:32:57.503Z,9.77
2023-01-20T10:35:28.843Z,9.85
2023-01-20T10:37:55.835Z,9.91
2023-01-20T10:40:29.831Z,9.95
2023-01-20T10:42:58.641Z,9.99
2023-01-20T10:45:43.787Z,10.04
2023-01-20T10:48:30.304Z,10.08
2023-01-20T10:51:20.737Z,10.14
2023-01-20T10:53:56.321Z,10.24
2023-01-20T10:56:53.700Z,10.30
2023-01-20T10:59:39.811Z,10.38
2023-01-20T11:02:38.162Z,10.44
2023-01-20T11:05:21.041Z,10.48
2023-01-20T11:07:47.871Z,10.53
2023-01-20T11:10:19.527Z,10.56
2023-01-20T11:12:48.883Z,10.59
2023-01-20T11:15:22.380Z,10.63
2023-01-20T11:18:07.856Z,10.65
2023-01-20T11:20:35.012Z,10.65
2023-01-20T11:23:01.732Z,10.64
2023-01-20T11:25:28.362Z,10.68
2023-01-20T11:27:55.102Z,10.69
2023-01-20T11:30:27.435Z,10.72
2023-01-20T11:33:17.058Z,10.78
2023-01-20T11:36:03.700Z,10.81
2023-01-20T11:38:50.838Z,10.86
2023-01-20T11:41:20.043Z,10.92
2023-01-20T11:43:46.847Z,10.96
2023-01-20T11:46:22.549Z,10.99
2023-01-20T11:48:50.212Z,11.04
2023-01-20T11:51:27.361Z,11.07
2023-01-20T11:54:15.514Z,11.11
2023-01-20T11:56:43.046Z,11.13
2023-01-20T11:59:24.589Z,11.12
2023-01-20T12:01:58.018Z,11.10
2023-01-20T12:04:31.980Z,11.09
2023-01-20T12:07:02.874Z,11.08
2023-01-20T12:09:38.387Z,11.09
2023-01-20T12:12:18.105Z,11.09
2023-01-20T12:15:02.297Z,11.10
2023-01-20T12:17:48.966Z,11.11
2023-01-20T12:20:15.861Z,11.14
2023-01-20T12:23:06.003Z,11.16
2023-01-20T12:25:37.665Z,11.20
2023-01-20T12:28:11.001Z,11.24
2023-01-20T12:30:53.362Z,11.28
2023-01-20T12:33:22.214Z,11.34
2023-01-20T12:36:27.497Z,11.36
2023-01-20T12:39:21.123Z,11.40
2023-01-20T12:42:01.805Z,11.44
2023-01-20T12:44:42.177Z,11.44
2023-01-20T12:47:14.628Z,11.41
2023-01-20T12:50:19.038Z,11.39
2023-01-20T12:53:04.129Z,11.38
2023-01-20T12:55:49.000Z,11.38
2023-01-20T12:58:32.083Z,11.37
2023-01-20T13:01:36.087Z,11.33
2023-01-20T13:04:40.549Z,11.28
2023-01-20T13:07:19.244Z,11.25
2023-01-20T13:09:58.091Z,11.23
2023-01-20T13:12:43.567Z,11.25
2023-01-20T13:15:15.269Z,11.26
2023-01-20T13:18:01.091Z,11.29
2023-01-20T13:20:28.488Z,11.31
2023-01-20T13:22:55.458Z,11.31
2023-01-20T13:25:22.394Z,11.31
2023-01-20T13:27:51.141Z,11.30
2023-01-20T13:30:37.104Z,11.30
2023-01-20T13:33:07.787Z,11.30
2023-01-20T13:35:46.949Z,11.28
2023-01-20T13:38:19.081Z,11.27
2023-01-20T13:40:45.783Z,11.25
2023-01-20T17:53:36.161Z,5.33
2023-01-20T17:56:12.480Z,5.31
2023-01-20T17:58:39.968Z,5.34
2023-01-20T18:01:20.441Z,5.36
2023-01-20T18:03:48.250Z,5.40
2023-01-20T18:06:15.871Z,5.40
2023-01-20T18:08:42.723Z,5.39
2023-01-20T18:11:19.394Z,5.39
2023-01-20T18:13:46.362Z,5.39
2023-01-20T18:16:14.228Z,5.42
2023-01-20T18:18:41.564Z,5.42
2023-01-20T18:21:12.680Z,5.38
2023-01-20T18:23:39.593Z,5.36
2023-01-20T18:26:06.902Z,5.32
2023-01-20T18:28:33.739Z,5.30
2023-01-20T18:31:24.617Z,5.25
2023-01-20T18:33:56.303Z,5.21
2023-01-20T18:36:48.548Z,5.17
2023-01-20T18:39:17.218Z,5.14
2023-01-20T18:41:43.942Z,5.12
2023-01-20T18:44:10.788Z,5.11
2023-01-20T18:46:37.651Z,5.12
2023-01-20T18:49:05.841Z,5.12
2023-01-20T18:51:33.929Z,5.14
2023-01-20T18:54:05.961Z,5.14
2023-01-20T18:56:35.678Z,5.12
2023-01-20T18:59:03.195Z,5.09
2023-01-20T19:01:33.758Z,5.07
2023-01-20T19:04:01.453Z,5.06
2023-01-20T19:06:29.483Z,5.07
2023-01-20T19:08:57.349Z,5.07
2023-01-20T19:11:29.330Z,5.06
2023-01-20T19:13:56.084Z,5.04
2023-01-20T19:16:24.820Z,4.98
2023-01-20T19:18:53.031Z,4.89
2023-01-20T19:21:20.030Z,4.82
2023-01-20T19:23:54.128Z,4.75
2023-01-20T19:26:21.799Z,4.69
2023-01-20T19:28:55.096Z,4.67
2023-01-20T19:31:21.922Z,4.67
2023-01-20T19:33:51.649Z,4.68
2023-01-20T19:36:18.747Z,4.68
2023-01-20T19:38:45.548Z,4.67
2023-01-20T19:41:29.038Z,4.67
2023-01-20T19:43:57.338Z,4.64
2023-01-20T19:46:25.988Z,4.59
2023-01-20T19:48:53.308Z,4.53
2023-01-20T19:51:20.256Z,4.46
2023-01-20T19:53:47.388Z,4.39
2023-01-20T19:56:15.457Z,4.33
2023-01-20T19:58:42.700Z,4.28
2023-01-20T20:01:26.042Z,4.24
2023-01-20T20:03:53.106Z,4.21
2023-01-20T20:06:32.760Z,4.19
2023-01-20T20:09:01.363Z,4.18
2023-01-20T20:11:28.403Z,4.17
2023-01-20T20:14:00.831Z,4.13
2023-01-20T20:16:30.226Z,4.07
2023-01-20T20:18:57.439Z,4.01
2023-01-20T20:21:24.208Z,3.96
2023-01-20T20:23:52.194Z,3.92
2023-01-20T20:26:19.459Z,3.86
2023-01-20T20:28:46.214Z,3.84
2023-01-20T20:31:13.143Z,3.82
2023-01-20T20:33:41.150Z,3.79
2023-01-20T20:36:09.113Z,3.76
2023-01-20T20:38:36.767Z,3.73
2023-01-20T20:41:04.321Z,3.71
2023-01-20T20:43:31.033Z,3.71
2023-01-20T20:46:01.532Z,3.69
2023-01-20T20:48:28.719Z,3.69
2023-01-20T20:50:55.492Z,3.68
2023-01-20T20:53:22.221Z,3.64
2023-01-20T20:55:51.509Z,3.61
2023-01-20T20:58:18.150Z,3.56
2023-01-20T21:00:49.397Z,3.52
2023-01-20T21:03:16.077Z,3.49
2023-01-20T21:05:46.506Z,3.45
2023-01-20T21:08:13.482Z,3.43
2023-01-20T21:10:41.123Z,3.42
2023-01-20T21:13:08.347Z,3.42
2023-01-20T21:15:35.706Z,3.44
2023-01-20T21:18:02.352Z,3.45
2023-01-20T21:20:31.243Z,3.46
2023-01-20T21:22:58.142Z,3.44
2023-01-20T21:25:25.015Z,3.43
2023-01-20T21:27:51.666Z,3.41
2023-01-20T21:30:19.188Z,3.39
2023-01-20T21:32:45.997Z,3.37
2023-01-20T21:35:12.704Z,3.35
2023-01-20T21:37:39.458Z,3.34
2023-01-20T21:40:06.755Z,3.34
2023-01-20T21:42:33.411Z,3.36
2023-01-20T21:45:00.081Z,3.39
2023-01-20T21:47:26.802Z,3.39
2023-01-20T23:56:01.586Z,0.59
2023-01-20T23:58:28.412Z,0.58
